sensor_id;sensor_type;location;lat;lon;timestamp;P1;durP1;ratioP1;P2;durP2;ratioP2
19278;SDS011;9773;47.062;15.446;2023-03-01T00:02:04;13.03;;;8.80;;
19278;SDS011;9773;47.062;15.446;2023-03-01T00:04:30;15.60;;;9.23;;
19278;SDS011;9773;47.062;15.446;2023-03-01T00:06:57;14.50;;;8.67;;
19278;SDS011;9773;47.062;15.446;2023-03-01T00:09:22;16.23;;;9.47;;
19278;SDS011;9773;47.062;15.446;2023-03-01T00:11:48;11.83;;;8.53;;
19278;SDS011;9773;47.062;15.446;2023-03-01T00:14:15;15.30;;;9.23;;
19278;SDS011;9773;47.062;15.446;2023-03-01T00:16:42;12.40;;;8.77;;
19278;SDS011;9773;47.062;15.446;2023-03-01T00:19:13;15.27;;;9.17;;
19278;SDS011;9773;47.062;15.446;2023-03-01T00:21:41;15.77;;;10.20;;
19278;SDS011;9773;47.062;15.446;2023-03-01T00:24:07;10.97;;;8.50;;
19278;SDS011;9773;47.062;15.446;2023-03-01T00:26:33;15.77;;;8.97;;
19278;SDS011;9773;47.062;15.446;2023-03-01T00:28:59;11.97;;;8.60;;
19278;SDS011;9773;47.062;15.446;2023-03-01T00:31:29;11.93;;;8.30;;
19278;SDS011;9773;47.062;15.446;2023-03-01T00:33:57;16.07;;;9.57;;
19278;SDS011;9773;47.062;15.446;2023-03-01T00:36:28;13.93;;;9.50;;
19278;SDS011;9773;47.062;15.446;2023-03-01T00:38:56;13.73;;;8.87;;
19278;SDS011;9773;47.062;15.446;2023-03-01T00:41:22;15.07;;;9.40;;
19278;SDS011;9773;47.062;15.446;2023-03-01T00:43:48;12.17;;;8.60;;
19278;SDS011;9773;47.062;15.446;2023-03-01T00:46:17;12.47;;;8.90;;
19278;SDS011;9773;47.062;15.446;2023-03-01T00:48:44;13.37;;;8.37;;
19278;SDS011;9773;47.062;15.446;2023-03-01T00:51:14;13.70;;;8.33;;
19278;SDS011;9773;47.062;15.446;2023-03-01T00:53:40;14.23;;;8.23;;
19278;SDS011;9773;47.062;15.446;2023-03-01T00:56:06;14.70;;;9.43;;
19278;SDS011;9773;47.062;15.446;2023-03-01T00:58:34;15.63;;;8.87;;
19278;SDS011;9773;47.062;15.446;2023-03-01T01:01:00;13.17;;;8.37;;
19278;SDS011;9773;47.062;15.446;2023-03-01T01:03:32;15.37;;;9.47;;
19278;SDS011;9773;47.062;15.446;2023-03-01T01:05:58;14.73;;;8.67;;
19278;SDS011;9773;47.062;15.446;2023-03-01T01:08:23;14.43;;;9.37;;
19278;SDS011;9773;47.062;15.446;2023-03-01T01:10:49;12.93;;;8.83;;
19278;SDS011;9773;47.062;15.446;2023-03-01T01:13:15;14.27;;;9.73;;
19278;SDS011;9773;47.062;15.446;2023-03-01T01:15:40;14.50;;;8.67;;
19278;SDS011;9773;47.062;15.446;2023-03-01T01:18:06;12.40;;;8.07;;
19278;SDS011;9773;47.062;15.446;2023-03-01T01:20:32;13.13;;;9.17;;
19278;SDS011;9773;47.062;15.446;2023-03-01T01:23:00;14.00;;;9.60;;
19278;SDS011;9773;47.062;15.446;2023-03-01T01:25:26;13.00;;;8.70;;
19278;SDS011;9773;47.062;15.446;2023-03-01T01:27:52;11.43;;;8.27;;
19278;SDS011;9773;47.062;15.446;2023-03-01T01:30:17;15.97;;;8.93;;
19278;SDS011;9773;47.062;15.446;2023-03-01T01:32:43;12.60;;;9.13;;
19278;SDS011;9773;47.062;15.446;2023-03-01T01:35:09;14.73;;;8.83;;
19278;SDS011;9773;47.062;15.446;2023-03-01T01:37:35;12.17;;;8.50;;
19278;SDS011;9773;47.062;15.446;2023-03-01T01:40:01;13.63;;;8.17;;
19278;SDS011;9773;47.062;15.446;2023-03-01T01:42:29;13.50;;;8.63;;
19278;SDS011;9773;47.062;15.446;2023-03-01T01:47:51;13.47;;;9.07;;
19278;SDS011;9773;47.062;15.446;2023-03-01T01:50:19;12.43;;;8.27;;
19278;SDS011;9773;47.062;15.446;2023-03-01T01:52:45;11.50;;;8.10;;
19278;SDS011;9773;47.062;15.446;2023-03-01T01:55:14;12.70;;;8.50;;
19278;SDS011;9773;47.062;15.446;2023-03-01T01:57:49;12.53;;;8.33;;
19278;SDS011;9773;47.062;15.446;2023-03-01T02:00:21;12.70;;;8.90;;
19278;SDS011;9773;47.062;15.446;2023-03-01T02:02:50;11.87;;;8.17;;
19278;SDS011;9773;47.062;15.446;2023-03-01T02:08:04;12.73;;;8.67;;
19278;SDS011;9773;47.062;15.446;2023-03-01T02:10:32;11.43;;;8.20;;
19278;SDS011;9773;47.062;15.446;2023-03-01T02:12:59;12.90;;;8.17;;
19278;SDS011;9773;47.062;15.446;2023-03-01T02:15:26;11.87;;;7.80;;
19278;SDS011;9773;47.062;15.446;2023-03-01T02:17:56;11.97;;;7.93;;
19278;SDS011;9773;47.062;15.446;2023-03-01T02:20:33;17.23;;;9.60;;
19278;SDS011;9773;47.062;15.446;2023-03-01T02:23:14;11.13;;;7.30;;
19278;SDS011;9773;47.062;15.446;2023-03-01T02:25:44;10.30;;;7.13;;
19278;SDS011;9773;47.062;15.446;2023-03-01T02:28:33;11.87;;;7.97;;
19278;SDS011;9773;47.062;15.446;2023-03-01T02:31:05;12.30;;;7.73;;
19278;SDS011;9773;47.062;15.446;2023-03-01T02:33:50;12.20;;;7.80;;
19278;SDS011;9773;47.062;15.446;2023-03-01T02:36:36;13.73;;;8.00;;
19278;SDS011;9773;47.062;15.446;2023-03-01T02:39:06;11.83;;;7.90;;
19278;SDS011;9773;47.062;15.446;2023-03-01T02:41:39;12.30;;;7.90;;
19278;SDS011;9773;47.062;15.446;2023-03-01T02:44:07;15.73;;;8.83;;
19278;SDS011;9773;47.062;15.446;2023-03-01T02:46:33;13.63;;;8.27;;
19278;SDS011;9773;47.062;15.446;2023-03-01T02:49:26;13.47;;;8.03;;
19278;SDS011;9773;47.062;15.446;2023-03-01T02:52:01;12.53;;;7.77;;
19278;SDS011;9773;47.062;15.446;2023-03-01T02:57:32;10.97;;;7.67;;
19278;SDS011;9773;47.062;15.446;2023-03-01T03:00:00;12.20;;;7.90;;
19278;SDS011;9773;47.062;15.446;2023-03-01T03:02:32;10.50;;;7.57;;
19278;SDS011;9773;47.062;15.446;2023-03-01T03:05:06;11.20;;;7.30;;
19278;SDS011;9773;47.062;15.446;2023-03-01T03:07:35;14.20;;;8.00;;
19278;SDS011;9773;47.062;15.446;2023-03-01T03:10:03;11.80;;;7.73;;
19278;SDS011;9773;47.062;15.446;2023-03-01T03:12:30;10.40;;;7.40;;
19278;SDS011;9773;47.062;15.446;2023-03-01T03:14:56;10.90;;;7.23;;
19278;SDS011;9773;47.062;15.446;2023-03-01T03:17:22;12.57;;;8.27;;
19278;SDS011;9773;47.062;15.446;2023-03-01T03:19:48;11.90;;;7.80;;
19278;SDS011;9773;47.062;15.446;2023-03-01T03:22:14;13.10;;;8.10;;
19278;SDS011;9773;47.062;15.446;2023-03-01T03:24:39;11.00;;;7.43;;
19278;SDS011;9773;47.062;15.446;2023-03-01T03:27:05;10.43;;;7.67;;
19278;SDS011;9773;47.062;15.446;2023-03-01T03:29:32;10.73;;;7.67;;
19278;SDS011;9773;47.062;15.446;2023-03-01T03:31:58;11.73;;;7.97;;
19278;SDS011;9773;47.062;15.446;2023-03-01T03:34:24;11.17;;;7.90;;
19278;SDS011;9773;47.062;15.446;2023-03-01T03:36:54;10.57;;;7.67;;
19278;SDS011;9773;47.062;15.446;2023-03-01T03:39:24;11.83;;;7.93;;
19278;SDS011;9773;47.062;15.446;2023-03-01T03:41:52;10.83;;;7.93;;
19278;SDS011;9773;47.062;15.446;2023-03-01T03:44:18;11.33;;;7.43;;
19278;SDS011;9773;47.062;15.446;2023-03-01T03:46:44;15.43;;;8.50;;
19278;SDS011;9773;47.062;15.446;2023-03-01T03:49:10;12.00;;;7.90;;
19278;SDS011;9773;47.062;15.446;2023-03-01T03:51:36;13.73;;;7.97;;
19278;SDS011;9773;47.062;15.446;2023-03-01T03:54:02;13.20;;;8.50;;
19278;SDS011;9773;47.062;15.446;2023-03-01T03:56:29;10.40;;;7.47;;
19278;SDS011;9773;47.062;15.446;2023-03-01T03:58:54;11.73;;;7.73;;
19278;SDS011;9773;47.062;15.446;2023-03-01T04:01:20;13.27;;;7.83;;
19278;SDS011;9773;47.062;15.446;2023-03-01T04:03:46;11.40;;;8.23;;
19278;SDS011;9773;47.062;15.446;2023-03-01T04:06:12;9.60;;;7.20;;
19278;SDS011;9773;47.062;15.446;2023-03-01T04:08:39;9.67;;;6.80;;
19278;SDS011;9773;47.062;15.446;2023-03-01T04:11:05;11.43;;;8.10;;
19278;SDS011;9773;47.062;15.446;2023-03-01T04:13:50;9.43;;;6.87;;
19278;SDS011;9773;47.062;15.446;2023-03-01T04:16:17;11.03;;;8.10;;
19278;SDS011;9773;47.062;15.446;2023-03-01T04:18:43;11.93;;;7.93;;
19278;SDS011;9773;47.062;15.446;2023-03-01T04:21:09;8.60;;;7.17;;
19278;SDS011;9773;47.062;15.446;2023-03-01T04:23:36;10.43;;;7.93;;
19278;SDS011;9773;47.062;15.446;2023-03-01T04:26:03;14.53;;;7.17;;
19278;SDS011;9773;47.062;15.446;2023-03-01T04:28:30;11.93;;;7.53;;
19278;SDS011;9773;47.062;15.446;2023-03-01T04:31:08;8.93;;;6.90;;
19278;SDS011;9773;47.062;15.446;2023-03-01T04:33:59;11.53;;;7.80;;
19278;SDS011;9773;47.062;15.446;2023-03-01T04:36:26;10.17;;;7.10;;
19278;SDS011;9773;47.062;15.446;2023-03-01T04:38:53;13.90;;;8.20;;
19278;SDS011;9773;47.062;15.446;2023-03-01T04:41:21;12.03;;;8.37;;
19278;SDS011;9773;47.062;15.446;2023-03-01T04:43:48;10.10;;;7.53;;
19278;SDS011;9773;47.062;15.446;2023-03-01T04:46:15;11.53;;;8.07;;
19278;SDS011;9773;47.062;15.446;2023-03-01T04:48:44;10.77;;;7.97;;
19278;SDS011;9773;47.062;15.446;2023-03-01T04:51:12;12.80;;;9.20;;
19278;SDS011;9773;47.062;15.446;2023-03-01T04:53:38;13.03;;;8.83;;
19278;SDS011;9773;47.062;15.446;2023-03-01T04:56:05;13.80;;;9.53;;
19278;SDS011;9773;47.062;15.446;2023-03-01T04:58:31;13.73;;;9.37;;
19278;SDS011;9773;47.062;15.446;2023-03-01T05:00:57;14.50;;;9.40;;
19278;SDS011;9773;47.062;15.446;2023-03-01T05:03:23;12.40;;;9.40;;
19278;SDS011;9773;47.062;15.446;2023-03-01T05:05:50;17.97;;;11.00;;
19278;SDS011;9773;47.062;15.446;2023-03-01T05:08:17;18.70;;;10.30;;
19278;SDS011;9773;47.062;15.446;2023-03-01T05:10:44;17.23;;;10.50;;
19278;SDS011;9773;47.062;15.446;2023-03-01T05:13:12;15.47;;;9.13;;
19278;SDS011;9773;47.062;15.446;2023-03-01T05:15:40;11.10;;;9.27;;
19278;SDS011;9773;47.062;15.446;2023-03-01T05:18:05;18.40;;;10.47;;
19278;SDS011;9773;47.062;15.446;2023-03-01T05:20:36;13.73;;;8.60;;
19278;SDS011;9773;47.062;15.446;2023-03-01T05:23:02;13.23;;;9.10;;
19278;SDS011;9773;47.062;15.446;2023-03-01T05:25:30;15.60;;;9.37;;
19278;SDS011;9773;47.062;15.446;2023-03-01T05:28:00;13.40;;;8.93;;
19278;SDS011;9773;47.062;15.446;2023-03-01T05:30:32;15.77;;;9.53;;
19278;SDS011;9773;47.062;15.446;2023-03-01T05:33:00;16.57;;;9.03;;
19278;SDS011;9773;47.062;15.446;2023-03-01T05:35:26;14.53;;;9.17;;
19278;SDS011;9773;47.062;15.446;2023-03-01T05:37:52;14.10;;;9.23;;
19278;SDS011;9773;47.062;15.446;2023-03-01T05:40:19;13.83;;;9.57;;
19278;SDS011;9773;47.062;15.446;2023-03-01T05:42:47;14.00;;;9.10;;
19278;SDS011;9773;47.062;15.446;2023-03-01T05:45:15;14.20;;;9.60;;
19278;SDS011;9773;47.062;15.446;2023-03-01T05:47:42;13.80;;;9.20;;
19278;SDS011;9773;47.062;15.446;2023-03-01T05:50:32;13.73;;;9.17;;
19278;SDS011;9773;47.062;15.446;2023-03-01T05:52:59;13.17;;;9.53;;
19278;SDS011;9773;47.062;15.446;2023-03-01T05:55:27;12.33;;;9.07;;
19278;SDS011;9773;47.062;15.446;2023-03-01T05:57:54;14.27;;;9.80;;
19278;SDS011;9773;47.062;15.446;2023-03-01T06:00:21;14.13;;;9.90;;
19278;SDS011;9773;47.062;15.446;2023-03-01T06:02:47;13.73;;;9.17;;
19278;SDS011;9773;47.062;15.446;2023-03-01T06:05:14;13.30;;;9.43;;
19278;SDS011;9773;47.062;15.446;2023-03-01T06:07:40;17.70;;;9.33;;
19278;SDS011;9773;47.062;15.446;2023-03-01T06:10:07;13.13;;;9.57;;
19278;SDS011;9773;47.062;15.446;2023-03-01T06:12:35;12.30;;;8.53;;
19278;SDS011;9773;47.062;15.446;2023-03-01T06:15:02;14.30;;;8.80;;
19278;SDS011;9773;47.062;15.446;2023-03-01T06:17:29;17.67;;;9.37;;
19278;SDS011;9773;47.062;15.446;2023-03-01T06:19:56;12.63;;;9.03;;
19278;SDS011;9773;47.062;15.446;2023-03-01T06:22:22;17.80;;;9.53;;
19278;SDS011;9773;47.062;15.446;2023-03-01T06:24:48;17.13;;;10.07;;
19278;SDS011;9773;47.062;15.446;2023-03-01T06:27:14;16.10;;;9.67;;
19278;SDS011;9773;47.062;15.446;2023-03-01T06:29:40;15.27;;;9.17;;
19278;SDS011;9773;47.062;15.446;2023-03-01T06:32:06;15.87;;;9.30;;
19278;SDS011;9773;47.062;15.446;2023-03-01T06:34:33;14.63;;;9.30;;
19278;SDS011;9773;47.062;15.446;2023-03-01T06:36:58;16.87;;;9.20;;
19278;SDS011;9773;47.062;15.446;2023-03-01T06:39:24;19.33;;;10.90;;
19278;SDS011;9773;47.062;15.446;2023-03-01T06:41:52;26.50;;;12.23;;
19278;SDS011;9773;47.062;15.446;2023-03-01T06:44:18;17.37;;;10.40;;
19278;SDS011;9773;47.062;15.446;2023-03-01T06:46:43;18.30;;;10.23;;
19278;SDS011;9773;47.062;15.446;2023-03-01T06:49:09;16.70;;;9.73;;
19278;SDS011;9773;47.062;15.446;2023-03-01T06:51:35;17.33;;;10.30;;
19278;SDS011;9773;47.062;15.446;2023-03-01T06:54:02;16.90;;;10.33;;
19278;SDS011;9773;47.062;15.446;2023-03-01T06:56:29;15.10;;;9.53;;
19278;SDS011;9773;47.062;15.446;2023-03-01T06:58:56;16.83;;;9.50;;
19278;SDS011;9773;47.062;15.446;2023-03-01T07:01:21;14.70;;;9.00;;
19278;SDS011;9773;47.062;15.446;2023-03-01T07:03:47;14.73;;;9.27;;
19278;SDS011;9773;47.062;15.446;2023-03-01T07:06:13;15.63;;;9.27;;
19278;SDS011;9773;47.062;15.446;2023-03-01T07:08:38;13.63;;;8.80;;
19278;SDS011;9773;47.062;15.446;2023-03-01T07:11:04;13.50;;;9.33;;
19278;SDS011;9773;47.062;15.446;2023-03-01T07:13:30;14.80;;;9.10;;
19278;SDS011;9773;47.062;15.446;2023-03-01T07:15:57;14.70;;;9.07;;
19278;SDS011;9773;47.062;15.446;2023-03-01T07:18:22;13.73;;;8.87;;
19278;SDS011;9773;47.062;15.446;2023-03-01T07:20:49;13.37;;;8.20;;
19278;SDS011;9773;47.062;15.446;2023-03-01T07:23:14;12.13;;;8.47;;
19278;SDS011;9773;47.062;15.446;2023-03-01T07:25:41;14.10;;;9.00;;
19278;SDS011;9773;47.062;15.446;2023-03-01T07:28:06;13.50;;;9.67;;
19278;SDS011;9773;47.062;15.446;2023-03-01T07:30:32;14.07;;;9.40;;
19278;SDS011;9773;47.062;15.446;2023-03-01T07:32:58;13.47;;;8.67;;
19278;SDS011;9773;47.062;15.446;2023-03-01T07:35:25;14.00;;;8.47;;
19278;SDS011;9773;47.062;15.446;2023-03-01T07:37:51;11.20;;;8.03;;
19278;SDS011;9773;47.062;15.446;2023-03-01T07:40:18;9.33;;;7.50;;
19278;SDS011;9773;47.062;15.446;2023-03-01T07:42:44;11.00;;;8.10;;
19278;SDS011;9773;47.062;15.446;2023-03-01T07:45:10;11.40;;;8.37;;
19278;SDS011;9773;47.062;15.446;2023-03-01T07:47:36;10.87;;;7.93;;
19278;SDS011;9773;47.062;15.446;2023-03-01T07:50:02;13.10;;;8.37;;
19278;SDS011;9773;47.062;15.446;2023-03-01T07:52:29;11.53;;;8.13;;
19278;SDS011;9773;47.062;15.446;2023-03-01T07:54:56;12.10;;;8.10;;
19278;SDS011;9773;47.062;15.446;2023-03-01T07:57:22;10.90;;;8.13;;
19278;SDS011;9773;47.062;15.446;2023-03-01T07:59:48;16.07;;;9.27;;
19278;SDS011;9773;47.062;15.446;2023-03-01T08:02:14;11.70;;;8.50;;
19278;SDS011;9773;47.062;15.446;2023-03-01T08:04:40;13.50;;;9.30;;
19278;SDS011;9773;47.062;15.446;2023-03-01T08:07:07;13.33;;;8.77;;
19278;SDS011;9773;47.062;15.446;2023-03-01T08:09:36;13.20;;;8.03;;
19278;SDS011;9773;47.062;15.446;2023-03-01T08:12:02;12.23;;;8.73;;
19278;SDS011;9773;47.062;15.446;2023-03-01T08:14:29;16.27;;;8.97;;
19278;SDS011;9773;47.062;15.446;2023-03-01T08:16:56;12.63;;;8.20;;
19278;SDS011;9773;47.062;15.446;2023-03-01T08:19:21;12.40;;;8.33;;
19278;SDS011;9773;47.062;15.446;2023-03-01T08:21:47;13.23;;;8.67;;
19278;SDS011;9773;47.062;15.446;2023-03-01T08:24:13;13.07;;;8.40;;
19278;SDS011;9773;47.062;15.446;2023-03-01T08:26:39;12.53;;;8.20;;
19278;SDS011;9773;47.062;15.446;2023-03-01T08:29:04;11.00;;;7.73;;
19278;SDS011;9773;47.062;15.446;2023-03-01T08:31:31;12.83;;;8.27;;
19278;SDS011;9773;47.062;15.446;2023-03-01T08:34:01;12.37;;;7.40;;
19278;SDS011;9773;47.062;15.446;2023-03-01T08:36:30;10.10;;;7.43;;
19278;SDS011;9773;47.062;15.446;2023-03-01T08:38:58;9.57;;;7.47;;
19278;SDS011;9773;47.062;15.446;2023-03-01T08:41:24;11.03;;;7.53;;
19278;SDS011;9773;47.062;15.446;2023-03-01T08:43:51;9.70;;;7.40;;
19278;SDS011;9773;47.062;15.446;2023-03-01T08:46:17;9.87;;;7.10;;
19278;SDS011;9773;47.062;15.446;2023-03-01T08:48:43;13.73;;;7.67;;
19278;SDS011;9773;47.062;15.446;2023-03-01T08:51:10;11.27;;;8.00;;
19278;SDS011;9773;47.062;15.446;2023-03-01T08:53:37;12.00;;;7.47;;
19278;SDS011;9773;47.062;15.446;2023-03-01T08:56:04;13.27;;;8.80;;
19278;SDS011;9773;47.062;15.446;2023-03-01T08:58:30;12.17;;;7.70;;
19278;SDS011;9773;47.062;15.446;2023-03-01T09:00:56;11.73;;;8.10;;
19278;SDS011;9773;47.062;15.446;2023-03-01T09:03:22;16.67;;;8.67;;
19278;SDS011;9773;47.062;15.446;2023-03-01T09:05:49;11.80;;;8.00;;
19278;SDS011;9773;47.062;15.446;2023-03-01T09:08:15;10.77;;;8.13;;
19278;SDS011;9773;47.062;15.446;2023-03-01T09:10:44;11.60;;;8.10;;
19278;SDS011;9773;47.062;15.446;2023-03-01T09:13:11;9.83;;;7.93;;
19278;SDS011;9773;47.062;15.446;2023-03-01T09:15:37;11.07;;;8.00;;
19278;SDS011;9773;47.062;15.446;2023-03-01T09:18:03;12.50;;;8.43;;
19278;SDS011;9773;47.062;15.446;2023-03-01T09:20:30;13.50;;;9.23;;
19278;SDS011;9773;47.062;15.446;2023-03-01T09:22:57;13.23;;;8.47;;
19278;SDS011;9773;47.062;15.446;2023-03-01T09:25:23;9.57;;;7.23;;
19278;SDS011;9773;47.062;15.446;2023-03-01T09:27:52;13.43;;;8.10;;
19278;SDS011;9773;47.062;15.446;2023-03-01T09:30:19;13.10;;;8.67;;
19278;SDS011;9773;47.062;15.446;2023-03-01T09:32:45;12.20;;;8.40;;
19278;SDS011;9773;47.062;15.446;2023-03-01T09:35:12;12.10;;;9.13;;
19278;SDS011;9773;47.062;15.446;2023-03-01T09:37:38;10.90;;;8.40;;
19278;SDS011;9773;47.062;15.446;2023-03-01T09:40:28;12.27;;;7.93;;
19278;SDS011;9773;47.062;15.446;2023-03-01T09:43:03;13.70;;;8.97;;
19278;SDS011;9773;47.062;15.446;2023-03-01T09:45:34;12.00;;;8.77;;
19278;SDS011;9773;47.062;15.446;2023-03-01T09:48:03;12.37;;;9.20;;
19278;SDS011;9773;47.062;15.446;2023-03-01T09:50:35;17.70;;;9.17;;
19278;SDS011;9773;47.062;15.446;2023-03-01T09:53:38;12.63;;;8.40;;
19278;SDS011;9773;47.062;15.446;2023-03-01T09:56:11;13.80;;;9.20;;
19278;SDS011;9773;47.062;15.446;2023-03-01T09:58:48;13.43;;;8.73;;
19278;SDS011;9773;47.062;15.446;2023-03-01T10:01:29;14.80;;;9.60;;
19278;SDS011;9773;47.062;15.446;2023-03-01T10:06:39;16.23;;;9.40;;
19278;SDS011;9773;47.062;15.446;2023-03-01T10:09:12;12.07;;;8.50;;
19278;SDS011;9773;47.062;15.446;2023-03-01T10:11:48;15.00;;;9.97;;
19278;SDS011;9773;47.062;15.446;2023-03-01T10:19:45;14.77;;;9.43;;
19278;SDS011;9773;47.062;15.446;2023-03-01T10:22:13;13.20;;;9.40;;
19278;SDS011;9773;47.062;15.446;2023-03-01T10:24:43;11.03;;;7.97;;
19278;SDS011;9773;47.062;15.446;2023-03-01T10:27:22;17.50;;;9.43;;
19278;SDS011;9773;47.062;15.446;2023-03-01T10:30:02;13.70;;;9.23;;
19278;SDS011;9773;47.062;15.446;2023-03-01T10:32:41;14.10;;;9.40;;
19278;SDS011;9773;47.062;15.446;2023-03-01T10:37:59;12.57;;;8.13;;
19278;SDS011;9773;47.062;15.446;2023-03-01T10:40:29;14.20;;;9.23;;
19278;SDS011;9773;47.062;15.446;2023-03-01T10:43:00;14.73;;;9.33;;
19278;SDS011;9773;47.062;15.446;2023-03-01T10:45:34;14.00;;;9.10;;
19278;SDS011;9773;47.062;15.446;2023-03-01T10:50:33;14.30;;;8.70;;
19278;SDS011;9773;47.062;15.446;2023-03-01T10:53:01;17.10;;;10.00;;
19278;SDS011;9773;47.062;15.446;2023-03-01T11:00:34;14.23;;;8.90;;
19278;SDS011;9773;47.062;15.446;2023-03-01T11:03:15;13.97;;;9.50;;
19278;SDS011;9773;47.062;15.446;2023-03-01T11:05:55;14.20;;;9.33;;
19278;SDS011;9773;47.062;15.446;2023-03-01T11:08:38;14.73;;;8.90;;
19278;SDS011;9773;47.062;15.446;2023-03-01T11:14:14;15.17;;;9.33;;
19278;SDS011;9773;47.062;15.446;2023-03-01T11:16:58;14.20;;;8.83;;
19278;SDS011;9773;47.062;15.446;2023-03-01T11:19:26;14.47;;;9.97;;
19278;SDS011;9773;47.062;15.446;2023-03-01T11:26:59;13.67;;;9.00;;
19278;SDS011;9773;47.062;15.446;2023-03-01T11:32:01;18.10;;;8.60;;
19278;SDS011;9773;47.062;15.446;2023-03-01T11:34:38;17.83;;;9.20;;
19278;SDS011;9773;47.062;15.446;2023-03-01T11:42:41;18.20;;;9.57;;
19278;SDS011;9773;47.062;15.446;2023-03-01T11:45:24;14.20;;;9.90;;
19278;SDS011;9773;47.062;15.446;2023-03-01T11:50:52;13.13;;;9.17;;
19278;SDS011;9773;47.062;15.446;2023-03-01T12:09:24;14.53;;;9.03;;
19278;SDS011;9773;47.062;15.446;2023-03-01T12:14:33;13.13;;;8.90;;
19278;SDS011;9773;47.062;15.446;2023-03-01T12:34:18;15.10;;;9.73;;
19278;SDS011;9773;47.062;15.446;2023-03-01T12:36:53;15.83;;;9.20;;
19278;SDS011;9773;47.062;15.446;2023-03-01T12:45:04;15.03;;;9.43;;
19278;SDS011;9773;47.062;15.446;2023-03-01T12:50:37;14.53;;;9.33;;
19278;SDS011;9773;47.062;15.446;2023-03-01T12:53:07;15.60;;;9.30;;
19278;SDS011;9773;47.062;15.446;2023-03-01T12:56:05;15.77;;;8.67;;
19278;SDS011;9773;47.062;15.446;2023-03-01T13:01:33;16.17;;;9.40;;
19278;SDS011;9773;47.062;15.446;2023-03-01T13:09:31;12.77;;;8.67;;
19278;SDS011;9773;47.062;15.446;2023-03-01T13:15:37;13.90;;;8.70;;
19278;SDS011;9773;47.062;15.446;2023-03-01T13:20:48;14.30;;;9.23;;
19278;SDS011;9773;47.062;15.446;2023-03-01T13:33:51;13.07;;;8.13;;
19278;SDS011;9773;47.062;15.446;2023-03-01T13:44:13;14.53;;;7.63;;
19278;SDS011;9773;47.062;15.446;2023-03-01T13:46:52;12.67;;;7.80;;
19278;SDS011;9773;47.062;15.446;2023-03-01T13:49:23;14.60;;;8.70;;
19278;SDS011;9773;47.062;15.446;2023-03-01T13:51:52;11.87;;;7.90;;
19278;SDS011;9773;47.062;15.446;2023-03-01T13:54:24;16.77;;;8.37;;
19278;SDS011;9773;47.062;15.446;2023-03-01T13:56:54;13.23;;;8.10;;
19278;SDS011;9773;47.062;15.446;2023-03-01T13:59:21;11.97;;;7.87;;
19278;SDS011;9773;47.062;15.446;2023-03-01T14:02:00;9.67;;;7.53;;
19278;SDS011;9773;47.062;15.446;2023-03-01T14:04:37;11.67;;;7.27;;
19278;SDS011;9773;47.062;15.446;2023-03-01T14:07:16;12.83;;;7.90;;
19278;SDS011;9773;47.062;15.446;2023-03-01T14:09:45;11.93;;;7.67;;
19278;SDS011;9773;47.062;15.446;2023-03-01T14:20:26;11.27;;;6.93;;
19278;SDS011;9773;47.062;15.446;2023-03-01T14:22:57;9.33;;;7.10;;
19278;SDS011;9773;47.062;15.446;2023-03-01T14:25:33;9.80;;;7.10;;
19278;SDS011;9773;47.062;15.446;2023-03-01T14:31:22;11.43;;;7.40;;
19278;SDS011;9773;47.062;15.446;2023-03-01T14:34:18;10.27;;;6.93;;
19278;SDS011;9773;47.062;15.446;2023-03-01T14:36:46;11.10;;;7.40;;
19278;SDS011;9773;47.062;15.446;2023-03-01T14:39:19;13.00;;;7.47;;
19278;SDS011;9773;47.062;15.446;2023-03-01T14:41:48;12.53;;;7.63;;
19278;SDS011;9773;47.062;15.446;2023-03-01T14:44:18;11.10;;;7.53;;
19278;SDS011;9773;47.062;15.446;2023-03-01T14:46:51;11.33;;;7.87;;
19278;SDS011;9773;47.062;15.446;2023-03-01T14:49:30;11.17;;;7.57;;
19278;SDS011;9773;47.062;15.446;2023-03-01T14:51:59;10.10;;;7.13;;
19278;SDS011;9773;47.062;15.446;2023-03-01T14:54:27;9.00;;;6.63;;
19278;SDS011;9773;47.062;15.446;2023-03-01T14:57:02;8.47;;;6.77;;
19278;SDS011;9773;47.062;15.446;2023-03-01T14:59:28;11.43;;;7.13;;
19278;SDS011;9773;47.062;15.446;2023-03-01T15:01:55;10.40;;;6.77;;
19278;SDS011;9773;47.062;15.446;2023-03-01T15:04:23;11.23;;;7.60;;
19278;SDS011;9773;47.062;15.446;2023-03-01T15:06:51;9.97;;;7.50;;
19278;SDS011;9773;47.062;15.446;2023-03-01T15:09:19;11.30;;;7.77;;
19278;SDS011;9773;47.062;15.446;2023-03-01T15:11:46;9.90;;;7.63;;
19278;SDS011;9773;47.062;15.446;2023-03-01T15:17:15;11.43;;;7.77;;
19278;SDS011;9773;47.062;15.446;2023-03-01T15:19:49;9.27;;;7.73;;
19278;SDS011;9773;47.062;15.446;2023-03-01T15:22:15;12.17;;;8.10;;
19278;SDS011;9773;47.062;15.446;2023-03-01T15:24:41;11.73;;;7.70;;
19278;SDS011;9773;47.062;15.446;2023-03-01T15:27:17;11.17;;;7.43;;
19278;SDS011;9773;47.062;15.446;2023-03-01T15:29:57;8.03;;;6.27;;
19278;SDS011;9773;47.062;15.446;2023-03-01T15:34:50;9.43;;;6.23;;
19278;SDS011;9773;47.062;15.446;2023-03-01T15:40:20;10.03;;;6.77;;
19278;SDS011;9773;47.062;15.446;2023-03-01T15:42:56;9.27;;;6.83;;
19278;SDS011;9773;47.062;15.446;2023-03-01T15:45:27;9.17;;;6.80;;
19278;SDS011;9773;47.062;15.446;2023-03-01T15:47:55;9.30;;;7.10;;
19278;SDS011;9773;47.062;15.446;2023-03-01T15:52:50;11.13;;;7.30;;
19278;SDS011;9773;47.062;15.446;2023-03-01T15:57:44;13.30;;;7.17;;
19278;SDS011;9773;47.062;15.446;2023-03-01T16:00:11;10.63;;;7.07;;
19278;SDS011;9773;47.062;15.446;2023-03-01T16:02:38;11.27;;;7.13;;
19278;SDS011;9773;47.062;15.446;2023-03-01T16:05:28;9.03;;;6.97;;
19278;SDS011;9773;47.062;15.446;2023-03-01T16:07:55;11.53;;;8.57;;
19278;SDS011;9773;47.062;15.446;2023-03-01T16:10:21;12.33;;;7.10;;
19278;SDS011;9773;47.062;15.446;2023-03-01T16:12:47;11.47;;;8.20;;
19278;SDS011;9773;47.062;15.446;2023-03-01T16:15:18;10.90;;;8.20;;
19278;SDS011;9773;47.062;15.446;2023-03-01T16:17:49;10.90;;;8.10;;
19278;SDS011;9773;47.062;15.446;2023-03-01T16:20:15;10.80;;;7.97;;
19278;SDS011;9773;47.062;15.446;2023-03-01T16:22:42;12.33;;;8.30;;
19278;SDS011;9773;47.062;15.446;2023-03-01T16:25:12;9.40;;;7.87;;
19278;SDS011;9773;47.062;15.446;2023-03-01T16:27:43;11.67;;;8.20;;
19278;SDS011;9773;47.062;15.446;2023-03-01T16:30:11;13.80;;;8.23;;
19278;SDS011;9773;47.062;15.446;2023-03-01T16:32:38;12.47;;;8.10;;
19278;SDS011;9773;47.062;15.446;2023-03-01T16:35:05;11.70;;;7.60;;
19278;SDS011;9773;47.062;15.446;2023-03-01T16:37:34;12.40;;;8.53;;
19278;SDS011;9773;47.062;15.446;2023-03-01T16:40:00;11.63;;;7.73;;
19278;SDS011;9773;47.062;15.446;2023-03-01T16:42:32;15.17;;;8.70;;
19278;SDS011;9773;47.062;15.446;2023-03-01T16:44:59;13.33;;;8.60;;
19278;SDS011;9773;47.062;15.446;2023-03-01T16:47:26;14.80;;;8.77;;
19278;SDS011;9773;47.062;15.446;2023-03-01T16:49:53;15.03;;;8.97;;
19278;SDS011;9773;47.062;15.446;2023-03-01T16:52:20;14.13;;;8.87;;
19278;SDS011;9773;47.062;15.446;2023-03-01T16:54:46;13.17;;;8.90;;
19278;SDS011;9773;47.062;15.446;2023-03-01T16:57:15;16.37;;;9.30;;
19278;SDS011;9773;47.062;15.446;2023-03-01T16:59:41;14.77;;;9.03;;
19278;SDS011;9773;47.062;15.446;2023-03-01T17:02:11;19.90;;;11.13;;
19278;SDS011;9773;47.062;15.446;2023-03-01T17:04:41;17.90;;;10.33;;
19278;SDS011;9773;47.062;15.446;2023-03-01T17:07:07;13.57;;;9.43;;
19278;SDS011;9773;47.062;15.446;2023-03-01T17:09:36;18.67;;;11.27;;
19278;SDS011;9773;47.062;15.446;2023-03-01T17:12:03;17.73;;;10.60;;
19278;SDS011;9773;47.062;15.446;2023-03-01T17:14:29;21.40;;;13.43;;
19278;SDS011;9773;47.062;15.446;2023-03-01T17:16:55;21.13;;;12.13;;